sensor_id;sensor_type;location;lat;lon;timestamp;P1;durP1;ratioP1;P2;durP2;ratioP2
78344;SDS011;67620;51.134;6.548;2023-07-20T00:01:22;1.67;;;0.90;;
78344;SDS011;67620;51.134;6.548;2023-07-20T00:03:47;1.23;;;0.63;;
78344;SDS011;67620;51.134;6.548;2023-07-20T00:08:45;1.25;;;0.50;;
78344;SDS011;67620;51.134;6.548;2023-07-20T00:11:11;0.90;;;0.45;;
78344;SDS011;67620;51.134;6.548;2023-07-20T00:13:38;1.75;;;0.60;;
78344;SDS011;67620;51.134;6.548;2023-07-20T00:16:04;2.08;;;0.57;;
78344;SDS011;67620;51.134;6.548;2023-07-20T00:18:30;1.35;;;0.50;;
78344;SDS011;67620;51.134;6.548;2023-07-20T00:20:55;1.70;;;0.65;;
78344;SDS011;67620;51.134;6.548;2023-07-20T00:23:20;0.70;;;0.40;;
78344;SDS011;67620;51.134;6.548;2023-07-20T00:25:47;1.13;;;0.40;;
78344;SDS011;67620;51.134;6.548;2023-07-20T00:28:15;1.50;;;0.50;;
78344;SDS011;67620;51.134;6.548;2023-07-20T00:30:41;2.97;;;0.73;;
78344;SDS011;67620;51.134;6.548;2023-07-20T00:33:09;1.77;;;0.52;;
78344;SDS011;67620;51.134;6.548;2023-07-20T00:35:36;0.77;;;0.50;;
78344;SDS011;67620;51.134;6.548;2023-07-20T00:38:02;1.00;;;0.50;;
78344;SDS011;67620;51.134;6.548;2023-07-20T00:40:28;0.95;;;0.40;;
78344;SDS011;67620;51.134;6.548;2023-07-20T00:42:54;0.73;;;0.57;;
78344;SDS011;67620;51.134;6.548;2023-07-20T00:45:19;0.95;;;0.43;;
78344;SDS011;67620;51.134;6.548;2023-07-20T00:47:45;1.33;;;0.50;;
78344;SDS011;67620;51.134;6.548;2023-07-20T00:50:10;1.80;;;0.60;;
78344;SDS011;67620;51.134;6.548;2023-07-20T00:52:37;1.42;;;0.70;;
78344;SDS011;67620;51.134;6.548;2023-07-20T00:55:04;2.25;;;0.57;;
78344;SDS011;67620;51.134;6.548;2023-07-20T00:57:31;1.15;;;0.50;;
78344;SDS011;67620;51.134;6.548;2023-07-20T00:59:57;1.42;;;0.50;;
78344;SDS011;67620;51.134;6.548;2023-07-20T01:02:23;1.00;;;0.50;;
78344;SDS011;67620;51.134;6.548;2023-07-20T01:04:48;1.77;;;0.60;;
78344;SDS011;67620;51.134;6.548;2023-07-20T01:07:21;1.05;;;0.43;;
78344;SDS011;67620;51.134;6.548;2023-07-20T01:12:55;1.98;;;0.50;;
78344;SDS011;67620;51.134;6.548;2023-07-20T01:15:22;1.02;;;0.50;;
78344;SDS011;67620;51.134;6.548;2023-07-20T01:17:48;1.45;;;0.70;;
78344;SDS011;67620;51.134;6.548;2023-07-20T01:20:14;1.35;;;0.50;;
78344;SDS011;67620;51.134;6.548;2023-07-20T01:27:54;0.77;;;0.43;;
78344;SDS011;67620;51.134;6.548;2023-07-20T01:33:23;0.77;;;0.50;;
78344;SDS011;67620;51.134;6.548;2023-07-20T01:35:54;1.08;;;0.50;;
78344;SDS011;67620;51.134;6.548;2023-07-20T01:38:23;1.20;;;0.50;;
78344;SDS011;67620;51.134;6.548;2023-07-20T01:40:50;0.75;;;0.40;;
78344;SDS011;67620;51.134;6.548;2023-07-20T01:43:16;1.10;;;0.60;;
78344;SDS011;67620;51.134;6.548;2023-07-20T01:45:42;1.00;;;0.60;;
78344;SDS011;67620;51.134;6.548;2023-07-20T01:48:08;0.88;;;0.40;;
78344;SDS011;67620;51.134;6.548;2023-07-20T01:50:34;0.90;;;0.40;;
78344;SDS011;67620;51.134;6.548;2023-07-20T01:53:00;1.05;;;0.52;;
78344;SDS011;67620;51.134;6.548;2023-07-20T01:55:26;0.95;;;0.45;;
78344;SDS011;67620;51.134;6.548;2023-07-20T01:57:52;0.93;;;0.50;;
78344;SDS011;67620;51.134;6.548;2023-07-20T02:00:17;1.30;;;0.40;;
78344;SDS011;67620;51.134;6.548;2023-07-20T02:02:46;0.95;;;0.32;;
78344;SDS011;67620;51.134;6.548;2023-07-20T02:05:11;1.20;;;0.55;;
78344;SDS011;67620;51.134;6.548;2023-07-20T02:07:37;0.60;;;0.43;;
78344;SDS011;67620;51.134;6.548;2023-07-20T02:10:03;1.00;;;0.60;;
78344;SDS011;67620;51.134;6.548;2023-07-20T02:12:28;0.77;;;0.50;;
78344;SDS011;67620;51.134;6.548;2023-07-20T02:14:54;1.35;;;0.50;;
78344;SDS011;67620;51.134;6.548;2023-07-20T02:17:19;1.00;;;0.55;;
78344;SDS011;67620;51.134;6.548;2023-07-20T02:19:45;0.60;;;0.40;;
78344;SDS011;67620;51.134;6.548;2023-07-20T02:22:11;0.70;;;0.50;;
78344;SDS011;67620;51.134;6.548;2023-07-20T02:24:37;0.82;;;0.47;;
78344;SDS011;67620;51.134;6.548;2023-07-20T02:27:03;0.95;;;0.45;;
78344;SDS011;67620;51.134;6.548;2023-07-20T02:29:29;0.98;;;0.45;;
78344;SDS011;67620;51.134;6.548;2023-07-20T02:31:54;0.60;;;0.30;;
78344;SDS011;67620;51.134;6.548;2023-07-20T02:34:20;1.13;;;0.50;;
78344;SDS011;67620;51.134;6.548;2023-07-20T02:36:45;0.70;;;0.40;;
78344;SDS011;67620;51.134;6.548;2023-07-20T02:39:11;0.77;;;0.40;;
78344;SDS011;67620;51.134;6.548;2023-07-20T02:41:36;1.10;;;0.52;;
78344;SDS011;67620;51.134;6.548;2023-07-20T02:44:02;1.38;;;0.40;;
78344;SDS011;67620;51.134;6.548;2023-07-20T02:46:28;1.95;;;0.60;;
78344;SDS011;67620;51.134;6.548;2023-07-20T02:48:55;1.58;;;0.60;;
78344;SDS011;67620;51.134;6.548;2023-07-20T02:51:20;1.60;;;0.70;;
78344;SDS011;67620;51.134;6.548;2023-07-20T02:53:46;1.00;;;0.55;;
78344;SDS011;67620;51.134;6.548;2023-07-20T02:56:11;1.48;;;0.60;;
78344;SDS011;67620;51.134;6.548;2023-07-20T02:58:39;0.77;;;0.50;;
78344;SDS011;67620;51.134;6.548;2023-07-20T03:01:08;0.88;;;0.47;;
78344;SDS011;67620;51.134;6.548;2023-07-20T03:03:34;0.80;;;0.50;;
78344;SDS011;67620;51.134;6.548;2023-07-20T03:06:03;1.05;;;0.65;;
78344;SDS011;67620;51.134;6.548;2023-07-20T03:08:34;1.02;;;0.35;;
78344;SDS011;67620;51.134;6.548;2023-07-20T03:11:00;0.80;;;0.40;;
78344;SDS011;67620;51.134;6.548;2023-07-20T03:13:26;0.75;;;0.40;;
78344;SDS011;67620;51.134;6.548;2023-07-20T03:15:52;0.88;;;0.40;;
78344;SDS011;67620;51.134;6.548;2023-07-20T03:18:18;1.27;;;0.50;;
78344;SDS011;67620;51.134;6.548;2023-07-20T03:20:44;1.42;;;0.52;;
78344;SDS011;67620;51.134;6.548;2023-07-20T03:23:10;1.20;;;0.50;;
78344;SDS011;67620;51.134;6.548;2023-07-20T03:25:35;0.60;;;0.40;;
78344;SDS011;67620;51.134;6.548;2023-07-20T03:28:02;1.20;;;0.73;;
78344;SDS011;67620;51.134;6.548;2023-07-20T03:30:28;1.25;;;0.50;;
78344;SDS011;67620;51.134;6.548;2023-07-20T03:32:53;1.10;;;0.57;;
78344;SDS011;67620;51.134;6.548;2023-07-20T03:35:19;1.13;;;0.50;;
78344;SDS011;67620;51.134;6.548;2023-07-20T03:37:44;1.02;;;0.57;;
78344;SDS011;67620;51.134;6.548;2023-07-20T03:40:10;0.77;;;0.45;;
78344;SDS011;67620;51.134;6.548;2023-07-20T03:42:35;1.10;;;0.35;;
78344;SDS011;67620;51.134;6.548;2023-07-20T03:45:01;0.80;;;0.50;;
78344;SDS011;67620;51.134;6.548;2023-07-20T03:47:28;0.85;;;0.40;;
78344;SDS011;67620;51.134;6.548;2023-07-20T03:49:53;1.38;;;0.50;;
78344;SDS011;67620;51.134;6.548;2023-07-20T03:52:19;1.00;;;0.50;;
78344;SDS011;67620;51.134;6.548;2023-07-20T03:54:44;1.00;;;0.68;;
78344;SDS011;67620;51.134;6.548;2023-07-20T03:57:10;0.60;;;0.40;;
78344;SDS011;67620;51.134;6.548;2023-07-20T03:59:37;1.30;;;0.50;;
78344;SDS011;67620;51.134;6.548;2023-07-20T04:02:04;0.82;;;0.47;;
78344;SDS011;67620;51.134;6.548;2023-07-20T04:04:30;1.13;;;0.40;;
78344;SDS011;67620;51.134;6.548;2023-07-20T04:06:56;1.48;;;0.55;;
78344;SDS011;67620;51.134;6.548;2023-07-20T04:09:22;1.13;;;0.60;;
78344;SDS011;67620;51.134;6.548;2023-07-20T04:11:47;0.88;;;0.47;;
78344;SDS011;67620;51.134;6.548;2023-07-20T04:14:13;0.70;;;0.40;;
78344;SDS011;67620;51.134;6.548;2023-07-20T04:16:38;0.90;;;0.50;;
78344;SDS011;67620;51.134;6.548;2023-07-20T04:19:04;1.05;;;0.50;;
78344;SDS011;67620;51.134;6.548;2023-07-20T04:21:29;1.38;;;0.50;;
78344;SDS011;67620;51.134;6.548;2023-07-20T04:23:55;0.88;;;0.40;;
78344;SDS011;67620;51.134;6.548;2023-07-20T04:26:20;0.47;;;0.28;;
78344;SDS011;67620;51.134;6.548;2023-07-20T04:28:46;1.33;;;0.60;;
78344;SDS011;67620;51.134;6.548;2023-07-20T04:31:13;0.75;;;0.52;;
78344;SDS011;67620;51.134;6.548;2023-07-20T04:33:39;0.80;;;0.40;;
78344;SDS011;67620;51.134;6.548;2023-07-20T04:36:05;0.88;;;0.50;;
78344;SDS011;67620;51.134;6.548;2023-07-20T04:38:32;0.70;;;0.40;;
78344;SDS011;67620;51.134;6.548;2023-07-20T04:40:57;1.05;;;0.40;;
78344;SDS011;67620;51.134;6.548;2023-07-20T04:43:23;0.70;;;0.40;;
78344;SDS011;67620;51.134;6.548;2023-07-20T04:45:48;0.60;;;0.30;;
78344;SDS011;67620;51.134;6.548;2023-07-20T04:48:15;9.18;;;1.58;;
78344;SDS011;67620;51.134;6.548;2023-07-20T04:50:41;29.42;;;3.53;;
78344;SDS011;67620;51.134;6.548;2023-07-20T04:53:08;18.33;;;3.28;;
78344;SDS011;67620;51.134;6.548;2023-07-20T04:55:37;17.98;;;2.85;;
78344;SDS011;67620;51.134;6.548;2023-07-20T04:58:03;9.95;;;1.70;;
78344;SDS011;67620;51.134;6.548;2023-07-20T05:00:30;7.57;;;1.52;;
78344;SDS011;67620;51.134;6.548;2023-07-20T05:02:57;9.77;;;1.55;;
78344;SDS011;67620;51.134;6.548;2023-07-20T05:05:22;8.45;;;1.65;;
78344;SDS011;67620;51.134;6.548;2023-07-20T05:07:48;7.75;;;1.70;;
78344;SDS011;67620;51.134;6.548;2023-07-20T05:10:13;7.25;;;1.45;;
78344;SDS011;67620;51.134;6.548;2023-07-20T05:12:39;6.90;;;1.10;;
78344;SDS011;67620;51.134;6.548;2023-07-20T05:15:04;6.68;;;1.80;;
78344;SDS011;67620;51.134;6.548;2023-07-20T05:17:30;5.03;;;1.63;;
78344;SDS011;67620;51.134;6.548;2023-07-20T05:19:56;3.60;;;1.08;;
78344;SDS011;67620;51.134;6.548;2023-07-20T05:22:21;3.65;;;1.23;;
78344;SDS011;67620;51.134;6.548;2023-07-20T05:24:48;4.82;;;1.30;;
78344;SDS011;67620;51.134;6.548;2023-07-20T05:27:13;8.38;;;1.30;;
78344;SDS011;67620;51.134;6.548;2023-07-20T05:29:43;6.72;;;1.25;;
78344;SDS011;67620;51.134;6.548;2023-07-20T05:32:09;4.63;;;0.95;;
78344;SDS011;67620;51.134;6.548;2023-07-20T05:34:34;4.88;;;1.20;;
78344;SDS011;67620;51.134;6.548;2023-07-20T05:37:00;6.05;;;1.25;;
78344;SDS011;67620;51.134;6.548;2023-07-20T05:39:25;4.32;;;1.23;;
78344;SDS011;67620;51.134;6.548;2023-07-20T05:41:51;5.47;;;0.90;;
78344;SDS011;67620;51.134;6.548;2023-07-20T05:44:16;4.75;;;1.17;;
78344;SDS011;67620;51.134;6.548;2023-07-20T05:46:42;5.03;;;1.10;;
78344;SDS011;67620;51.134;6.548;2023-07-20T05:49:07;4.88;;;1.15;;
78344;SDS011;67620;51.134;6.548;2023-07-20T05:51:33;7.13;;;1.90;;
78344;SDS011;67620;51.134;6.548;2023-07-20T05:53:59;5.78;;;1.13;;
78344;SDS011;67620;51.134;6.548;2023-07-20T05:56:24;4.47;;;1.30;;
78344;SDS011;67620;51.134;6.548;2023-07-20T05:58:50;5.88;;;1.10;;
78344;SDS011;67620;51.134;6.548;2023-07-20T06:01:15;4.93;;;1.23;;
78344;SDS011;67620;51.134;6.548;2023-07-20T06:03:41;5.70;;;0.93;;
78344;SDS011;67620;51.134;6.548;2023-07-20T06:06:06;5.53;;;1.13;;
78344;SDS011;67620;51.134;6.548;2023-07-20T06:08:34;3.33;;;0.98;;
78344;SDS011;67620;51.134;6.548;2023-07-20T06:10:59;5.82;;;1.13;;
78344;SDS011;67620;51.134;6.548;2023-07-20T06:13:25;3.22;;;0.90;;
78344;SDS011;67620;51.134;6.548;2023-07-20T06:15:51;4.03;;;1.23;;
78344;SDS011;67620;51.134;6.548;2023-07-20T06:18:16;3.00;;;1.05;;
78344;SDS011;67620;51.134;6.548;2023-07-20T06:20:42;4.00;;;1.00;;
78344;SDS011;67620;51.134;6.548;2023-07-20T06:23:07;3.10;;;0.90;;
78344;SDS011;67620;51.134;6.548;2023-07-20T06:25:33;3.35;;;0.88;;
78344;SDS011;67620;51.134;6.548;2023-07-20T06:27:58;2.70;;;0.90;;
78344;SDS011;67620;51.134;6.548;2023-07-20T06:30:24;4.93;;;0.88;;
78344;SDS011;67620;51.134;6.548;2023-07-20T06:32:49;3.13;;;0.80;;
78344;SDS011;67620;51.134;6.548;2023-07-20T06:35:15;4.72;;;1.00;;
78344;SDS011;67620;51.134;6.548;2023-07-20T06:37:41;2.50;;;0.80;;
78344;SDS011;67620;51.134;6.548;2023-07-20T06:40:07;3.00;;;1.00;;
78344;SDS011;67620;51.134;6.548;2023-07-20T06:42:34;3.08;;;0.75;;
78344;SDS011;67620;51.134;6.548;2023-07-20T06:44:59;4.43;;;0.93;;
78344;SDS011;67620;51.134;6.548;2023-07-20T06:47:25;3.50;;;0.80;;
78344;SDS011;67620;51.134;6.548;2023-07-20T06:49:51;2.50;;;0.80;;
78344;SDS011;67620;51.134;6.548;2023-07-20T06:52:16;3.88;;;1.08;;
78344;SDS011;67620;51.134;6.548;2023-07-20T06:54:42;2.53;;;0.90;;
78344;SDS011;67620;51.134;6.548;2023-07-20T06:57:07;3.38;;;1.02;;
78344;SDS011;67620;51.134;6.548;2023-07-20T06:59:33;2.35;;;0.65;;
78344;SDS011;67620;51.134;6.548;2023-07-20T07:01:58;1.92;;;0.70;;
78344;SDS011;67620;51.134;6.548;2023-07-20T07:04:24;4.43;;;1.10;;
78344;SDS011;67620;51.134;6.548;2023-07-20T07:06:50;1.88;;;0.88;;
78344;SDS011;67620;51.134;6.548;2023-07-20T07:09:15;3.03;;;0.63;;
78344;SDS011;67620;51.134;6.548;2023-07-20T07:11:41;2.22;;;0.75;;
78344;SDS011;67620;51.134;6.548;2023-07-20T07:14:06;2.92;;;0.80;;
78344;SDS011;67620;51.134;6.548;2023-07-20T07:16:31;1.85;;;0.77;;
78344;SDS011;67620;51.134;6.548;2023-07-20T07:18:57;3.65;;;1.05;;
78344;SDS011;67620;51.134;6.548;2023-07-20T07:21:23;3.13;;;0.70;;
78344;SDS011;67620;51.134;6.548;2023-07-20T07:23:50;1.90;;;0.57;;
78344;SDS011;67620;51.134;6.548;2023-07-20T07:26:18;2.10;;;0.90;;
78344;SDS011;67620;51.134;6.548;2023-07-20T07:28:44;3.30;;;0.80;;
78344;SDS011;67620;51.134;6.548;2023-07-20T07:31:09;2.33;;;0.80;;
78344;SDS011;67620;51.134;6.548;2023-07-20T07:33:35;3.15;;;0.77;;
78344;SDS011;67620;51.134;6.548;2023-07-20T07:36:00;2.00;;;0.82;;
78344;SDS011;67620;51.134;6.548;2023-07-20T07:38:26;2.35;;;0.77;;
78344;SDS011;67620;51.134;6.548;2023-07-20T07:40:52;3.70;;;0.85;;
78344;SDS011;67620;51.134;6.548;2023-07-20T07:43:17;2.97;;;0.80;;
78344;SDS011;67620;51.134;6.548;2023-07-20T07:45:43;2.25;;;0.90;;
78344;SDS011;67620;51.134;6.548;2023-07-20T07:48:08;1.65;;;0.50;;
78344;SDS011;67620;51.134;6.548;2023-07-20T07:50:36;1.50;;;0.70;;
78344;SDS011;67620;51.134;6.548;2023-07-20T07:53:02;1.60;;;0.60;;
78344;SDS011;67620;51.134;6.548;2023-07-20T07:55:28;3.00;;;0.70;;
78344;SDS011;67620;51.134;6.548;2023-07-20T07:57:53;1.67;;;0.68;;
78344;SDS011;67620;51.134;6.548;2023-07-20T08:00:19;3.40;;;1.00;;
78344;SDS011;67620;51.134;6.548;2023-07-20T08:02:45;2.40;;;0.75;;
78344;SDS011;67620;51.134;6.548;2023-07-20T08:05:14;2.30;;;0.70;;
78344;SDS011;67620;51.134;6.548;2023-07-20T08:07:39;1.90;;;0.63;;
78344;SDS011;67620;51.134;6.548;2023-07-20T08:10:05;2.72;;;0.70;;
78344;SDS011;67620;51.134;6.548;2023-07-20T08:12:31;2.33;;;0.63;;
78344;SDS011;67620;51.134;6.548;2023-07-20T08:14:57;2.63;;;0.80;;
78344;SDS011;67620;51.134;6.548;2023-07-20T08:17:22;1.40;;;0.68;;
78344;SDS011;67620;51.134;6.548;2023-07-20T08:19:48;2.35;;;0.73;;
78344;SDS011;67620;51.134;6.548;2023-07-20T08:22:13;1.73;;;0.70;;
78344;SDS011;67620;51.134;6.548;2023-07-20T08:24:39;1.20;;;0.60;;
78344;SDS011;67620;51.134;6.548;2023-07-20T08:27:06;2.15;;;0.70;;
78344;SDS011;67620;51.134;6.548;2023-07-20T08:29:32;1.77;;;0.47;;
78344;SDS011;67620;51.134;6.548;2023-07-20T08:31:57;2.17;;;0.77;;
78344;SDS011;67620;51.134;6.548;2023-07-20T08:34:23;2.78;;;0.80;;
78344;SDS011;67620;51.134;6.548;2023-07-20T08:36:48;1.65;;;0.68;;
78344;SDS011;67620;51.134;6.548;2023-07-20T08:39:14;2.17;;;0.82;;
78344;SDS011;67620;51.134;6.548;2023-07-20T08:41:39;1.95;;;0.80;;
78344;SDS011;67620;51.134;6.548;2023-07-20T08:44:07;2.53;;;0.70;;
78344;SDS011;67620;51.134;6.548;2023-07-20T08:46:33;2.42;;;0.88;;
78344;SDS011;67620;51.134;6.548;2023-07-20T08:49:00;1.35;;;0.60;;
78344;SDS011;67620;51.134;6.548;2023-07-20T08:51:27;1.90;;;0.85;;
78344;SDS011;67620;51.134;6.548;2023-07-20T08:53:55;1.98;;;0.73;;
78344;SDS011;67620;51.134;6.548;2023-07-20T08:56:20;1.58;;;0.70;;
78344;SDS011;67620;51.134;6.548;2023-07-20T08:58:48;1.27;;;0.60;;
78344;SDS011;67620;51.134;6.548;2023-07-20T09:01:14;2.63;;;0.90;;
78344;SDS011;67620;51.134;6.548;2023-07-20T09:03:40;2.25;;;0.80;;
78344;SDS011;67620;51.134;6.548;2023-07-20T09:06:08;1.60;;;0.70;;
78344;SDS011;67620;51.134;6.548;2023-07-20T09:08:33;2.22;;;0.90;;
78344;SDS011;67620;51.134;6.548;2023-07-20T09:11:02;1.45;;;0.68;;
78344;SDS011;67620;51.134;6.548;2023-07-20T09:13:28;2.05;;;0.70;;
78344;SDS011;67620;51.134;6.548;2023-07-20T09:15:53;2.38;;;0.73;;
78344;SDS011;67620;51.134;6.548;2023-07-20T09:18:24;1.70;;;0.60;;
78344;SDS011;67620;51.134;6.548;2023-07-20T09:20:50;1.95;;;0.80;;
78344;SDS011;67620;51.134;6.548;2023-07-20T09:23:16;2.72;;;0.80;;
78344;SDS011;67620;51.134;6.548;2023-07-20T09:25:41;2.55;;;0.75;;
78344;SDS011;67620;51.134;6.548;2023-07-20T09:28:07;2.40;;;0.70;;
78344;SDS011;67620;51.134;6.548;2023-07-20T09:30:32;2.22;;;0.68;;
78344;SDS011;67620;51.134;6.548;2023-07-20T09:32:58;1.83;;;0.70;;
78344;SDS011;67620;51.134;6.548;2023-07-20T09:35:24;2.33;;;0.68;;
78344;SDS011;67620;51.134;6.548;2023-07-20T09:37:54;2.33;;;0.70;;
78344;SDS011;67620;51.134;6.548;2023-07-20T09:40:24;3.15;;;0.80;;
78344;SDS011;67620;51.134;6.548;2023-07-20T09:42:51;1.33;;;0.52;;
78344;SDS011;67620;51.134;6.548;2023-07-20T09:45:19;1.45;;;0.55;;
78344;SDS011;67620;51.134;6.548;2023-07-20T09:47:44;2.90;;;0.65;;
78344;SDS011;67620;51.134;6.548;2023-07-20T09:50:11;1.85;;;0.82;;
78344;SDS011;67620;51.134;6.548;2023-07-20T09:52:40;1.45;;;0.40;;
78344;SDS011;67620;51.134;6.548;2023-07-20T09:55:09;1.52;;;0.60;;
78344;SDS011;67620;51.134;6.548;2023-07-20T09:57:38;2.00;;;0.60;;
78344;SDS011;67620;51.134;6.548;2023-07-20T10:00:04;1.63;;;0.60;;
78344;SDS011;67620;51.134;6.548;2023-07-20T10:02:40;1.58;;;0.68;;
78344;SDS011;67620;51.134;6.548;2023-07-20T10:05:08;1.58;;;0.80;;
78344;SDS011;67620;51.134;6.548;2023-07-20T10:07:39;2.30;;;0.80;;
78344;SDS011;67620;51.134;6.548;2023-07-20T10:10:15;1.40;;;0.50;;
78344;SDS011;67620;51.134;6.548;2023-07-20T10:12:42;1.25;;;0.50;;
78344;SDS011;67620;51.134;6.548;2023-07-20T10:15:10;1.13;;;0.57;;
78344;SDS011;67620;51.134;6.548;2023-07-20T10:17:40;1.13;;;0.52;;
78344;SDS011;67620;51.134;6.548;2023-07-20T10:20:18;1.10;;;0.47;;
78344;SDS011;67620;51.134;6.548;2023-07-20T10:22:46;0.90;;;0.57;;
78344;SDS011;67620;51.134;6.548;2023-07-20T10:25:14;1.83;;;0.60;;
78344;SDS011;67620;51.134;6.548;2023-07-20T10:27:41;1.48;;;0.50;;
78344;SDS011;67620;51.134;6.548;2023-07-20T10:30:07;1.45;;;0.60;;
78344;SDS011;67620;51.134;6.548;2023-07-20T10:32:33;1.38;;;0.60;;
78344;SDS011;67620;51.134;6.548;2023-07-20T10:34:59;2.17;;;0.60;;
78344;SDS011;67620;51.134;6.548;2023-07-20T10:42:50;1.10;;;0.60;;
78344;SDS011;67620;51.134;6.548;2023-07-20T10:45:18;1.27;;;0.57;;
78344;SDS011;67620;51.134;6.548;2023-07-20T10:47:47;1.35;;;0.50;;
78344;SDS011;67620;51.134;6.548;2023-07-20T10:50:13;1.45;;;0.50;;
78344;SDS011;67620;51.134;6.548;2023-07-20T10:52:41;1.02;;;0.45;;
78344;SDS011;67620;51.134;6.548;2023-07-20T10:55:10;1.15;;;0.60;;
78344;SDS011;67620;51.134;6.548;2023-07-20T10:57:40;1.25;;;0.57;;
78344;SDS011;67620;51.134;6.548;2023-07-20T11:00:12;1.30;;;0.40;;
78344;SDS011;67620;51.134;6.548;2023-07-20T11:02:42;1.60;;;0.55;;
78344;SDS011;67620;51.134;6.548;2023-07-20T11:05:31;1.45;;;0.80;;
78344;SDS011;67620;51.134;6.548;2023-07-20T11:07:57;1.40;;;0.30;;
78344;SDS011;67620;51.134;6.548;2023-07-20T11:10:22;1.55;;;0.60;;
78344;SDS011;67620;51.134;6.548;2023-07-20T11:15:47;1.17;;;0.43;;
78344;SDS011;67620;51.134;6.548;2023-07-20T11:18:28;1.65;;;0.52;;
78344;SDS011;67620;51.134;6.548;2023-07-20T11:20:54;2.13;;;0.68;;
78344;SDS011;67620;51.134;6.548;2023-07-20T11:23:20;1.17;;;0.60;;
78344;SDS011;67620;51.134;6.548;2023-07-20T11:25:46;1.00;;;0.50;;
78344;SDS011;67620;51.134;6.548;2023-07-20T11:28:11;1.60;;;0.60;;
78344;SDS011;67620;51.134;6.548;2023-07-20T11:30:37;2.35;;;0.52;;
78344;SDS011;67620;51.134;6.548;2023-07-20T11:33:08;1.17;;;0.60;;
78344;SDS011;67620;51.134;6.548;2023-07-20T11:35:43;1.95;;;0.57;;
78344;SDS011;67620;51.134;6.548;2023-07-20T11:38:11;1.15;;;0.60;;
78344;SDS011;67620;51.134;6.548;2023-07-20T11:40:42;1.33;;;0.68;;
78344;SDS011;67620;51.134;6.548;2023-07-20T11:43:08;1.20;;;0.70;;
78344;SDS011;67620;51.134;6.548;2023-07-20T11:45:36;0.82;;;0.40;;
78344;SDS011;67620;51.134;6.548;2023-07-20T11:48:03;1.23;;;0.60;;
78344;SDS011;67620;51.134;6.548;2023-07-20T11:50:28;1.20;;;0.50;;
78344;SDS011;67620;51.134;6.548;2023-07-20T11:52:54;1.67;;;0.60;;
78344;SDS011;67620;51.134;6.548;2023-07-20T11:55:19;1.65;;;0.60;;
78344;SDS011;67620;51.134;6.548;2023-07-20T11:58:04;1.42;;;0.57;;
78344;SDS011;67620;51.134;6.548;2023-07-20T12:00:31;1.48;;;0.52;;
78344;SDS011;67620;51.134;6.548;2023-07-20T12:02:57;0.88;;;0.60;;
78344;SDS011;67620;51.134;6.548;2023-07-20T12:05:23;1.52;;;0.50;;
78344;SDS011;67620;51.134;6.548;2023-07-20T12:07:49;1.33;;;0.50;;
78344;SDS011;67620;51.134;6.548;2023-07-20T12:10:16;1.10;;;0.43;;
78344;SDS011;67620;51.134;6.548;2023-07-20T12:12:53;1.33;;;0.55;;
78344;SDS011;67620;51.134;6.548;2023-07-20T12:15:22;0.93;;;0.60;;
78344;SDS011;67620;51.134;6.548;2023-07-20T12:17:50;2.50;;;0.50;;
78344;SDS011;67620;51.134;6.548;2023-07-20T12:20:32;1.30;;;0.40;;
78344;SDS011;67620;51.134;6.548;2023-07-20T12:23:01;1.05;;;0.47;;
78344;SDS011;67620;51.134;6.548;2023-07-20T12:28:17;1.42;;;0.47;;
78344;SDS011;67620;51.134;6.548;2023-07-20T12:30:45;0.90;;;0.50;;
78344;SDS011;67620;51.134;6.548;2023-07-20T12:33:11;0.70;;;0.40;;
78344;SDS011;67620;51.134;6.548;2023-07-20T12:35:39;0.93;;;0.40;;
78344;SDS011;67620;51.134;6.548;2023-07-20T12:38:04;0.98;;;0.50;;
78344;SDS011;67620;51.134;6.548;2023-07-20T12:40:31;0.80;;;0.40;;
78344;SDS011;67620;51.134;6.548;2023-07-20T12:42:56;0.60;;;0.40;;
78344;SDS011;67620;51.134;6.548;2023-07-20T12:45:22;0.70;;;0.40;;
78344;SDS011;67620;51.134;6.548;2023-07-20T12:47:48;0.90;;;0.55;;
78344;SDS011;67620;51.134;6.548;2023-07-20T12:50:14;1.98;;;0.60;;
78344;SDS011;67620;51.134;6.548;2023-07-20T12:52:40;1.02;;;0.45;;
78344;SDS011;67620;51.134;6.548;2023-07-20T12:55:06;0.85;;;0.32;;
78344;SDS011;67620;51.134;6.548;2023-07-20T12:57:36;0.60;;;0.30;;
78344;SDS011;67620;51.134;6.548;2023-07-20T13:00:03;0.88;;;0.47;;
78344;SDS011;67620;51.134;6.548;2023-07-20T13:02:30;2.17;;;0.60;;
78344;SDS011;67620;51.134;6.548;2023-07-20T13:04:57;0.80;;;0.45;;
78344;SDS011;67620;51.134;6.548;2023-07-20T13:07:35;0.73;;;0.43;;
78344;SDS011;67620;51.134;6.548;2023-07-20T13:10:02;1.15;;;0.47;;
78344;SDS011;67620;51.134;6.548;2023-07-20T13:12:30;0.63;;;0.40;;
78344;SDS011;67620;51.134;6.548;2023-07-20T13:14:57;0.95;;;0.45;;
78344;SDS011;67620;51.134;6.548;2023-07-20T13:17:25;2.05;;;0.50;;
78344;SDS011;67620;51.134;6.548;2023-07-20T13:19:52;1.40;;;0.40;;
78344;SDS011;67620;51.134;6.548;2023-07-20T13:22:17;1.13;;;0.45;;
78344;SDS011;67620;51.134;6.548;2023-07-20T13:24:44;1.08;;;0.55;;
78344;SDS011;67620;51.134;6.548;2023-07-20T13:27:13;1.23;;;0.60;;
78344;SDS011;67620;51.134;6.548;2023-07-20T13:29:43;2.05;;;0.57;;
78344;SDS011;67620;51.134;6.548;2023-07-20T13:32:09;1.30;;;0.60;;
78344;SDS011;67620;51.134;6.548;2023-07-20T13:34:34;2.03;;;0.60;;
78344;SDS011;67620;51.134;6.548;2023-07-20T13:37:02;2.83;;;0.50;;
78344;SDS011;67620;51.134;6.548;2023-07-20T13:39:28;2.15;;;0.60;;
78344;SDS011;67620;51.134;6.548;2023-07-20T13:41:53;2.47;;;0.60;;
78344;SDS011;67620;51.134;6.548;2023-07-20T13:44:19;3.28;;;0.63;;
78344;SDS011;67620;51.134;6.548;2023-07-20T13:46:46;0.75;;;0.38;;
78344;SDS011;67620;51.134;6.548;2023-07-20T13:49:11;1.95;;;0.68;;
78344;SDS011;67620;51.134;6.548;2023-07-20T13:51:37;2.15;;;0.63;;
78344;SDS011;67620;51.134;6.548;2023-07-20T13:54:03;2.08;;;0.50;;
78344;SDS011;67620;51.134;6.548;2023-07-20T13:56:28;1.02;;;0.40;;
78344;SDS011;67620;51.134;6.548;2023-07-20T13:58:54;1.42;;;0.40;;
78344;SDS011;67620;51.134;6.548;2023-07-20T14:01:19;1.75;;;0.60;;
78344;SDS011;67620;51.134;6.548;2023-07-20T14:03:48;1.67;;;0.68;;
78344;SDS011;67620;51.134;6.548;2023-07-20T14:06:13;1.58;;;0.50;;
78344;SDS011;67620;51.134;6.548;2023-07-20T14:08:39;1.45;;;0.50;;
78344;SDS011;67620;51.134;6.548;2023-07-20T14:11:05;2.65;;;0.82;;
78344;SDS011;67620;51.134;6.548;2023-07-20T14:13:31;1.70;;;0.50;;
78344;SDS011;67620;51.134;6.548;2023-07-20T14:15:57;1.25;;;0.50;;
78344;SDS011;67620;51.134;6.548;2023-07-20T14:18:22;2.22;;;0.50;;
78344;SDS011;67620;51.134;6.548;2023-07-20T14:20:48;2.60;;;0.60;;
78344;SDS011;67620;51.134;6.548;2023-07-20T14:23:14;1.70;;;0.60;;
78344;SDS011;67620;51.134;6.548;2023-07-20T14:25:39;3.05;;;0.80;;
78344;SDS011;67620;51.134;6.548;2023-07-20T14:28:05;3.33;;;0.77;;
78344;SDS011;67620;51.134;6.548;2023-07-20T14:30:31;1.65;;;0.57;;
78344;SDS011;67620;51.134;6.548;2023-07-20T14:32:56;2.53;;;0.60;;
78344;SDS011;67620;51.134;6.548;2023-07-20T14:35:22;1.33;;;0.65;;
78344;SDS011;67620;51.134;6.548;2023-07-20T14:37:47;2.63;;;0.80;;
78344;SDS011;67620;51.134;6.548;2023-07-20T14:40:13;1.98;;;0.60;;
78344;SDS011;67620;51.134;6.548;2023-07-20T14:42:39;1.67;;;0.63;;
78344;SDS011;67620;51.134;6.548;2023-07-20T14:45:04;1.35;;;0.40;;
78344;SDS011;67620;51.134;6.548;2023-07-20T14:47:31;1.42;;;0.50;;
78344;SDS011;67620;51.134;6.548;2023-07-20T14:50:00;1.83;;;0.60;;
78344;SDS011;67620;51.134;6.548;2023-07-20T14:52:27;2.20;;;0.80;;
78344;SDS011;67620;51.134;6.548;2023-07-20T14:54:53;1.25;;;0.57;;
78344;SDS011;67620;51.134;6.548;2023-07-20T14:57:19;1.38;;;0.55;;
78344;SDS011;67620;51.134;6.548;2023-07-20T14:59:46;1.15;;;0.50;;
78344;SDS011;67620;51.134;6.548;2023-07-20T15:02:12;0.98;;;0.47;;
78344;SDS011;67620;51.134;6.548;2023-07-20T15:04:44;0.90;;;0.55;;
78344;SDS011;67620;51.134;6.548;2023-07-20T15:07:14;1.60;;;0.60;;
78344;SDS011;67620;51.134;6.548;2023-07-20T15:09:52;1.70;;;0.50;;